createdAt,value
2023-04-09T00:01:45.014Z,5.60
2023-04-09T00:04:32.687Z,3.40
2023-04-09T00:07:23.805Z,5.40
2023-04-09T00:10:11.820Z,5.30
2023-04-09T00:12:59.664Z,5.20
2023-04-09T00:15:51.317Z,5.20
2023-04-09T00:18:39.624Z,5.10
2023-04-09T00:21:28.294Z,5.00
2023-04-09T00:24:16.209Z,5.00
2023-04-09T00:27:03.936Z,4.90
2023-04-09T00:29:51.893Z,4.90
2023-04-09T00:32:40.928Z,4.80
2023-04-09T00:35:28.899Z,4.70
2023-04-09T00:38:16.624Z,4.80
2023-04-09T00:41:03.858Z,4.80
2023-04-09T00:43:53.996Z,4.90
2023-04-09T00:46:42.169Z,4.70
2023-04-09T00:49:31.256Z,5.30
2023-04-09T00:52:18.789Z,4.70
2023-04-09T00:55:06.849Z,4.70
2023-04-09T00:57:54.470Z,4.60
2023-04-09T01:00:41.953Z,4.60
2023-04-09T01:03:29.662Z,4.50
2023-04-09T01:06:24.264Z,4.60
2023-04-09T01:09:16.382Z,4.50
2023-04-09T01:12:10.684Z,4.50
2023-04-09T01:15:00.811Z,4.40
2023-04-09T01:17:50.001Z,4.40
2023-04-09T01:20:40.817Z,4.30
2023-04-09T01:23:36.593Z,4.30
2023-04-09T01:26:31.107Z,4.20
2023-04-09T01:29:21.499Z,3.90
2023-04-09T01:32:09.294Z,4.40
2023-04-09T01:34:57.229Z,4.10
2023-04-09T01:37:44.841Z,4.00
2023-04-09T01:40:32.835Z,4.00
2023-04-09T01:43:20.724Z,2.80
2023-04-09T01:46:09.659Z,3.90
2023-04-09T01:48:58.399Z,3.60
2023-04-09T01:51:48.871Z,3.90
2023-04-09T01:54:36.211Z,3.80
2023-04-09T01:57:23.816Z,3.80
2023-04-09T02:00:12.480Z,4.90
2023-04-09T02:03:08.155Z,3.90
2023-04-09T02:05:58.911Z,3.90
2023-04-09T02:08:48.414Z,3.90
2023-04-09T02:11:37.538Z,3.50
2023-04-09T02:14:26.677Z,3.90
2023-04-09T02:17:14.829Z,4.00
2023-04-09T02:20:04.083Z,4.20
2023-04-09T02:22:51.543Z,4.20
2023-04-09T02:25:39.480Z,4.20
2023-04-09T02:28:26.961Z,4.30
2023-04-09T02:31:14.495Z,4.20
2023-04-09T02:34:02.094Z,4.30
2023-04-09T02:36:53.259Z,4.20
2023-04-09T02:39:40.637Z,1.60
2023-04-09T02:42:28.486Z,4.20
2023-04-09T02:45:16.080Z,4.00
2023-04-09T02:48:03.919Z,4.10
2023-04-09T02:50:55.598Z,3.90
2023-04-09T02:53:45.783Z,4.20
2023-04-09T02:56:33.608Z,4.00
2023-04-09T02:59:24.161Z,4.50
2023-04-09T03:02:13.567Z,4.10
2023-04-09T03:05:01.204Z,4.10
2023-04-09T03:07:48.864Z,3.70
2023-04-09T03:10:38.774Z,3.90
2023-04-09T03:13:26.553Z,4.40
2023-04-09T03:16:13.949Z,6.40
2023-04-09T03:19:01.470Z,3.80
2023-04-09T03:21:51.235Z,3.70
2023-04-09T03:24:44.211Z,3.60
2023-04-09T03:27:33.840Z,3.80
2023-04-09T03:30:22.954Z,4.80
2023-04-09T03:33:10.594Z,3.50
2023-04-09T03:36:08.727Z,3.50
2023-04-09T03:39:16.776Z,3.50
2023-04-09T03:42:05.224Z,3.50
2023-04-09T03:45:05.989Z,4.30
2023-04-09T03:47:58.270Z,3.50
2023-04-09T03:50:46.462Z,3.50
2023-04-09T03:53:37.648Z,2.00
2023-04-09T03:56:27.616Z,3.70
2023-04-09T03:59:15.979Z,3.70
2023-04-09T04:02:08.606Z,3.70
2023-04-09T04:05:01.175Z,3.80
2023-04-09T04:07:53.568Z,3.70
2023-04-09T04:10:47.810Z,3.70
2023-04-09T04:13:37.711Z,3.70
2023-04-09T04:16:31.111Z,3.80
2023-04-09T04:19:20.993Z,3.80
2023-04-09T04:22:11.546Z,3.80
2023-04-09T04:25:02.980Z,3.80
2023-04-09T04:27:55.061Z,3.70
2023-04-09T04:30:47.195Z,5.00
2023-04-09T04:33:37.319Z,3.40
2023-04-09T04:36:31.097Z,3.30
2023-04-09T04:39:18.664Z,3.20
2023-04-09T04:42:26.414Z,3.20
2023-04-09T04:45:14.336Z,3.00
2023-04-09T04:48:12.051Z,3.10
2023-04-09T04:50:59.875Z,3.20
2023-04-09T04:53:54.649Z,3.10
2023-04-09T04:56:42.307Z,3.00
2023-04-09T04:59:40.958Z,3.10
2023-04-09T05:02:30.971Z,3.80
2023-04-09T05:05:38.521Z,5.10
2023-04-09T05:08:26.911Z,2.20
2023-04-09T05:11:18.124Z,3.10
2023-04-09T05:14:08.432Z,3.10
2023-04-09T05:16:57.910Z,3.30
2023-04-09T05:19:52.396Z,3.30
2023-04-09T05:22:43.509Z,3.70
2023-04-09T05:25:31.003Z,3.40
2023-04-09T05:28:21.053Z,3.40
2023-04-09T05:31:15.878Z,3.60
2023-04-09T05:34:16.802Z,3.70
2023-04-09T05:37:09.177Z,3.40
2023-04-09T05:39:57.580Z,3.70
2023-04-09T05:42:45.755Z,3.80
2023-04-09T05:45:40.905Z,3.90
2023-04-09T05:48:28.933Z,4.20
2023-04-09T05:51:17.774Z,3.90
2023-04-09T05:54:06.939Z,3.90
2023-04-09T05:56:57.187Z,3.90
2023-04-09T05:59:44.860Z,3.90
2023-04-09T06:02:33.653Z,4.10
2023-04-09T06:05:21.404Z,3.80
2023-04-09T06:08:11.610Z,3.90
2023-04-09T06:10:59.912Z,3.40
2023-04-09T06:13:48.701Z,3.90
2023-04-09T06:16:36.629Z,4.00
2023-04-09T06:19:25.815Z,4.00
2023-04-09T06:22:13.483Z,6.40
2023-04-09T06:25:01.132Z,4.10
2023-04-09T06:27:49.361Z,4.30
2023-04-09T06:30:40.229Z,4.30
2023-04-09T06:33:28.032Z,4.40
2023-04-09T06:36:17.539Z,5.00
2023-04-09T06:39:05.986Z,4.50
2023-04-09T06:41:53.951Z,4.70
2023-04-09T06:45:01.653Z,4.70
2023-04-09T06:47:49.428Z,4.90
2023-04-09T06:50:38.154Z,4.90
2023-04-09T06:53:27.376Z,5.10
2023-04-09T06:56:14.960Z,5.10
2023-04-09T06:59:02.573Z,5.30
2023-04-09T07:01:52.035Z,5.40
2023-04-09T07:04:42.513Z,5.40
2023-04-09T07:07:29.973Z,5.50
2023-04-09T07:10:19.249Z,5.50
2023-04-09T07:13:06.769Z,5.60
2023-04-09T07:15:54.455Z,5.70
2023-04-09T07:18:43.132Z,5.70
2023-04-09T07:21:31.031Z,5.80
2023-04-09T07:24:18.650Z,5.90
2023-04-09T07:27:07.897Z,6.10
2023-04-09T07:29:56.098Z,7.10
2023-04-09T07:32:43.640Z,6.30
2023-04-09T07:35:32.255Z,6.50
2023-04-09T07:38:19.844Z,6.50
2023-04-09T07:41:07.788Z,6.80
2023-04-09T07:43:56.795Z,7.00
2023-04-09T07:46:45.515Z,7.10
2023-04-09T07:49:33.936Z,7.50
2023-04-09T07:52:22.274Z,7.40
2023-04-09T07:55:10.010Z,7.50
2023-04-09T07:57:57.601Z,7.60
2023-04-09T08:00:47.513Z,7.90
2023-04-09T08:03:38.733Z,8.00
2023-04-09T08:06:27.258Z,8.20
2023-04-09T08:09:15.007Z,8.60
2023-04-09T08:12:02.469Z,8.50
2023-04-09T08:14:50.043Z,8.60
2023-04-09T08:17:39.368Z,9.00
2023-04-09T08:20:28.070Z,9.00
2023-04-09T08:23:16.064Z,9.10
2023-04-09T08:26:04.207Z,9.00
2023-04-09T08:28:52.541Z,9.20
2023-04-09T08:31:40.379Z,9.40
2023-04-09T08:34:30.095Z,9.40
2023-04-09T08:37:18.709Z,9.60
2023-04-09T08:40:06.519Z,9.60
2023-04-09T08:42:56.776Z,9.70
2023-04-09T08:45:45.488Z,9.80
2023-04-09T08:48:33.457Z,9.90
2023-04-09T08:51:23.004Z,10.10
2023-04-09T08:54:11.307Z,10.20
2023-04-09T08:56:59.345Z,10.20
2023-04-09T08:59:46.694Z,10.30
2023-04-09T09:02:34.824Z,10.50
2023-04-09T09:05:36.395Z,10.50
2023-04-09T09:08:26.349Z,10.60
2023-04-09T09:11:27.091Z,10.60
2023-04-09T09:14:16.669Z,10.70
2023-04-09T09:17:05.513Z,10.90
2023-04-09T09:19:53.892Z,11.00
2023-04-09T09:22:55.051Z,11.10
2023-04-09T09:25:45.925Z,13.10
2023-04-09T09:28:36.784Z,11.40
2023-04-09T09:31:24.922Z,12.70
2023-04-09T09:34:12.637Z,12.20
2023-04-09T09:37:00.829Z,12.10
2023-04-09T09:39:48.739Z,13.30
2023-04-09T09:42:37.660Z,12.50
2023-04-09T09:45:25.854Z,12.80
2023-04-09T09:48:13.522Z,13.00
2023-04-09T09:51:01.551Z,13.10
2023-04-09T09:53:51.326Z,13.00
2023-04-09T09:56:39.862Z,13.20
2023-04-09T09:59:33.471Z,13.50
2023-04-09T10:02:22.001Z,14.10
2023-04-09T10:05:10.259Z,14.30
2023-04-09T10:07:58.775Z,14.20
2023-04-09T10:10:46.938Z,14.10
2023-04-09T10:13:36.223Z,14.10
2023-04-09T10:16:26.154Z,14.10
2023-04-09T10:19:15.357Z,14.10
2023-04-09T10:22:06.912Z,13.80
2023-04-09T10:24:56.006Z,13.80
2023-04-09T10:27:47.505Z,14.10
2023-04-09T10:30:36.012Z,14.10
2023-04-09T10:33:27.887Z,14.90
2023-04-09T10:36:15.581Z,14.40
2023-04-09T10:39:13.835Z,14.70
2023-04-09T10:42:02.484Z,14.70
2023-04-09T10:45:05.146Z,15.00
2023-04-09T10:47:54.743Z,14.90
2023-04-09T10:50:45.891Z,14.70
2023-04-09T10:53:34.900Z,15.10
2023-04-09T10:56:22.914Z,14.60
2023-04-09T10:59:10.679Z,15.00
2023-04-09T11:01:58.454Z,15.40
2023-04-09T11:04:53.557Z,15.70
2023-04-09T11:07:46.212Z,15.70
2023-04-09T11:10:34.842Z,16.50
2023-04-09T11:13:22.370Z,16.70
2023-04-09T11:16:09.514Z,16.20
2023-04-09T11:18:57.729Z,16.30
2023-04-09T11:21:46.404Z,16.30
2023-04-09T11:24:43.270Z,16.10
2023-04-09T11:27:30.976Z,16.20
2023-04-09T11:30:18.981Z,16.20
2023-04-09T11:33:06.227Z,16.50
2023-04-09T11:35:53.904Z,16.90
2023-04-09T11:38:41.530Z,17.10
2023-04-09T11:41:36.614Z,17.60
2023-04-09T11:44:24.320Z,18.10
2023-04-09T11:47:15.107Z,19.80
2023-04-09T11:50:03.375Z,18.30
2023-04-09T11:52:52.596Z,17.50
2023-04-09T11:55:40.167Z,17.90
2023-04-09T11:58:29.633Z,17.70
2023-04-09T12:01:17.703Z,16.60
2023-04-09T12:04:07.056Z,16.40
2023-04-09T12:06:58.984Z,16.40
2023-04-09T12:09:50.182Z,16.70
2023-04-09T12:12:44.238Z,17.00
2023-04-09T12:15:37.169Z,17.20
2023-04-09T12:18:24.534Z,17.60
2023-04-09T12:21:12.985Z,17.90
2023-04-09T12:24:01.322Z,18.40
2023-04-09T12:26:49.296Z,18.80
2023-04-09T12:29:36.464Z,19.90
2023-04-09T12:32:26.101Z,17.90
2023-04-09T12:35:16.244Z,18.40
2023-04-09T12:38:05.063Z,18.30
2023-04-09T12:40:52.506Z,18.70
2023-04-09T12:43:40.471Z,19.70
2023-04-09T12:46:28.541Z,19.20
2023-04-09T12:49:18.730Z,20.40
2023-04-09T12:52:07.014Z,20.40
2023-04-09T12:54:57.727Z,20.50
2023-04-09T12:57:47.385Z,19.40
2023-04-09T13:00:34.995Z,18.10
2023-04-09T13:03:22.876Z,19.80
2023-04-09T13:06:12.159Z,19.50
2023-04-09T13:08:59.717Z,19.40
2023-04-09T13:11:47.478Z,19.30
2023-04-09T13:14:35.244Z,19.80
2023-04-09T13:17:23.322Z,19.60
2023-04-09T13:20:11.333Z,19.10
2023-04-09T13:23:00.612Z,19.40
2023-04-09T13:25:47.955Z,20.70
2023-04-09T13:28:36.516Z,20.10
2023-04-09T13:31:24.426Z,20.40
2023-04-09T13:34:12.811Z,20.00
2023-04-09T13:37:00.230Z,19.80
2023-04-09T13:39:49.324Z,19.50
2023-04-09T13:42:37.605Z,19.80
2023-04-09T13:45:25.638Z,19.80
2023-04-09T13:48:15.583Z,19.30
2023-04-09T13:51:03.598Z,18.60
2023-04-09T13:53:51.069Z,19.50
2023-04-09T13:56:40.324Z,19.50
2023-04-09T13:59:27.737Z,18.40
2023-04-09T14:02:15.563Z,19.00
2023-04-09T14:05:03.802Z,19.70
2023-04-09T14:07:51.453Z,19.40
2023-04-09T14:10:39.781Z,19.80
2023-04-09T14:13:28.345Z,19.60
2023-04-09T14:16:16.221Z,20.30
2023-04-09T14:19:03.798Z,19.40
2023-04-09T14:21:53.319Z,19.10
2023-04-09T14:24:41.006Z,18.40
2023-04-09T14:27:28.454Z,17.50
2023-04-09T14:30:17.699Z,17.20
2023-04-09T14:33:05.625Z,17.50
2023-04-09T14:35:53.653Z,17.70
2023-04-09T14:38:42.527Z,17.10
2023-04-09T14:41:29.847Z,18.00
2023-04-09T14:44:17.578Z,18.60
2023-04-09T14:47:06.514Z,16.50
2023-04-09T14:49:54.779Z,16.50
2023-04-09T14:52:42.961Z,16.50
2023-04-09T14:55:30.373Z,16.60
2023-04-09T14:58:17.691Z,16.50
2023-04-09T15:01:06.050Z,16.40
2023-04-09T15:03:56.136Z,16.20
2023-04-09T15:06:43.540Z,15.40
2023-04-09T15:09:31.751Z,16.20
2023-04-09T15:12:19.568Z,16.20
2023-04-09T15:15:07.674Z,16.30
2023-04-09T15:17:54.982Z,16.20
2023-04-09T15:20:44.550Z,16.40
2023-04-09T15:23:32.631Z,16.30
2023-04-09T15:26:20.958Z,16.00
2023-04-09T15:29:09.229Z,15.90
2023-04-09T15:31:56.591Z,16.10
2023-04-09T15:34:44.780Z,13.90
2023-04-09T15:37:33.733Z,16.10
2023-04-09T15:40:24.175Z,16.00
2023-04-09T15:43:12.078Z,16.20
2023-04-09T15:45:59.832Z,15.80
2023-04-09T15:48:47.921Z,13.40
2023-04-09T15:51:36.088Z,15.50
2023-04-09T15:54:25.126Z,15.30
2023-04-09T15:57:12.582Z,16.20
2023-04-09T16:00:02.944Z,15.40
2023-04-09T16:02:53.174Z,15.50
2023-04-09T16:05:40.906Z,15.40
2023-04-09T16:08:28.136Z,15.40
2023-04-09T16:11:17.465Z,15.40
2023-04-09T16:14:05.096Z,15.40
2023-04-09T16:16:52.473Z,16.60
2023-04-09T16:19:40.407Z,17.00
2023-04-09T16:22:28.755Z,17.20
2023-04-09T16:25:17.870Z,17.60
2023-04-09T16:28:07.225Z,17.60
2023-04-09T16:30:54.914Z,17.60
2023-04-09T16:33:44.362Z,17.40
2023-04-09T16:36:37.137Z,15.50
2023-04-09T16:39:25.727Z,16.90
2023-04-09T16:42:13.689Z,16.60
2023-04-09T16:45:04.532Z,17.90
2023-04-09T16:47:54.003Z,17.10
2023-04-09T16:50:41.551Z,17.50
2023-04-09T16:53:29.068Z,17.50
2023-04-09T16:56:16.856Z,16.20
2023-04-09T16:59:04.423Z,15.80
2023-04-09T17:01:53.905Z,15.50
2023-04-09T17:04:41.900Z,16.00
2023-04-09T17:07:30.183Z,15.10
2023-04-09T17:10:19.145Z,14.90
2023-04-09T17:13:06.729Z,14.90
2023-04-09T17:15:54.444Z,14.90
2023-04-09T17:18:43.672Z,14.90
2023-04-09T17:21:30.996Z,15.30
2023-04-09T17:24:19.026Z,14.90
2023-04-09T17:27:06.750Z,15.00
2023-04-09T17:29:54.256Z,14.90
2023-04-09T17:32:43.856Z,14.90
2023-04-09T17:35:34.217Z,14.80
2023-04-09T17:38:21.824Z,14.70
2023-04-09T17:41:10.153Z,14.60
2023-04-09T17:43:58.302Z,14.50
2023-04-09T17:46:46.009Z,16.10
2023-04-09T17:49:34.169Z,14.80
2023-04-09T17:52:23.979Z,13.30
2023-04-09T17:55:13.167Z,14.50
2023-04-09T17:58:01.002Z,13.80
2023-04-09T18:00:48.644Z,13.60
2023-04-09T18:03:37.170Z,13.20
2023-04-09T18:06:25.977Z,13.00
2023-04-09T18:09:14.703Z,13.60
2023-04-09T18:12:04.454Z,12.50
2023-04-09T18:14:51.771Z,13.00
2023-04-09T18:17:39.352Z,12.10
2023-04-09T18:20:29.225Z,12.60
2023-04-09T18:23:16.922Z,12.10
2023-04-09T18:26:06.683Z,11.60
2023-04-09T18:28:55.553Z,11.50
2023-04-09T18:31:44.677Z,11.30
2023-04-09T18:34:32.586Z,11.00
2023-04-09T18:37:20.917Z,10.90
2023-04-09T18:40:08.956Z,10.80
2023-04-09T18:42:57.845Z,10.60
2023-04-09T18:45:45.161Z,10.50
2023-04-09T18:48:33.139Z,10.40
2023-04-09T18:51:20.984Z,10.40
2023-04-09T18:54:08.499Z,10.30
2023-04-09T18:56:57.594Z,10.20
2023-04-09T18:59:47.322Z,10.10
2023-04-09T19:02:34.983Z,10.10
2023-04-09T19:05:23.122Z,10.00
2023-04-09T19:08:10.992Z,10.00
2023-04-09T19:10:58.197Z,9.90
2023-04-09T19:13:46.411Z,9.80
2023-04-09T19:16:35.066Z,9.80
2023-04-09T19:19:23.433Z,9.70
2023-04-09T19:22:11.773Z,9.60
2023-04-09T19:24:59.318Z,9.60
2023-04-09T19:27:49.250Z,9.60
2023-04-09T19:30:37.286Z,9.50
2023-04-09T19:33:27.671Z,7.70
2023-04-09T19:36:15.782Z,9.40
2023-04-09T19:39:03.454Z,9.50
2023-04-09T19:41:51.284Z,9.40
2023-04-09T19:44:39.394Z,9.40
2023-04-09T19:47:27.391Z,9.50
2023-04-09T19:50:18.287Z,9.40
2023-04-09T19:53:06.014Z,9.40
2023-04-09T19:55:54.101Z,9.40
2023-04-09T19:58:42.490Z,9.40
2023-04-09T20:01:29.940Z,9.30
2023-04-09T20:04:17.678Z,9.30
2023-04-09T20:07:06.940Z,9.30
2023-04-09T20:09:54.772Z,9.50
2023-04-09T20:12:43.053Z,9.40
2023-04-09T20:15:30.578Z,7.10
2023-04-09T20:18:17.968Z,9.60
2023-04-09T20:21:07.563Z,9.70
2023-04-09T20:23:58.635Z,9.70
2023-04-09T20:26:46.482Z,9.70
2023-04-09T20:29:34.259Z,9.60
2023-04-09T20:32:22.793Z,9.70
2023-04-09T20:35:11.204Z,9.60
2023-04-09T20:37:58.853Z,9.90
2023-04-09T20:40:48.226Z,9.60
2023-04-09T20:43:35.697Z,10.60
2023-04-09T20:46:23.372Z,9.50
2023-04-09T20:49:11.123Z,9.50
2023-04-09T20:51:59.585Z,9.40
2023-04-09T20:54:47.262Z,9.40
2023-04-09T20:57:36.982Z,9.30
2023-04-09T21:00:25.358Z,9.30
2023-04-09T21:03:13.217Z,10.30
2023-04-09T21:06:01.265Z,9.60
2023-04-09T21:08:49.202Z,9.10
2023-04-09T21:11:37.448Z,9.10
2023-04-09T21:14:26.729Z,9.10
2023-04-09T21:17:14.434Z,8.90
2023-04-09T21:20:01.849Z,8.90
2023-04-09T21:22:49.946Z,8.90
2023-04-09T21:25:38.104Z,9.10
2023-04-09T21:28:26.847Z,8.70
2023-04-09T21:31:16.344Z,8.70
2023-04-09T21:34:04.538Z,8.70
2023-04-09T21:36:52.815Z,8.20
2023-04-09T21:39:41.113Z,8.60
2023-04-09T21:42:31.590Z,8.60
2023-04-09T21:45:19.535Z,8.60
2023-04-09T21:48:09.314Z,8.40
2023-04-09T21:50:57.322Z,8.30
2023-04-09T21:53:44.680Z,8.30
2023-04-09T21:56:33.414Z,8.20
2023-04-09T21:59:21.759Z,8.10
2023-04-09T22:02:09.867Z,8.20
2023-04-09T22:05:02.428Z,8.10
2023-04-09T22:07:50.047Z,8.10
2023-04-09T22:10:38.198Z,8.00
2023-04-09T22:13:25.672Z,8.00
2023-04-09T22:16:13.392Z,8.00
2023-04-09T22:19:02.375Z,7.90
2023-04-09T22:21:51.832Z,7.90
2023-04-09T22:24:39.455Z,7.80
2023-04-09T22:27:28.073Z,7.30
2023-04-09T22:30:15.960Z,7.70
2023-04-09T22:33:03.360Z,7.60
2023-04-09T22:35:51.556Z,7.60
2023-04-09T22:38:40.429Z,7.60
2023-04-09T22:41:28.547Z,7.60
2023-04-09T22:44:16.588Z,7.60
2023-04-09T22:47:04.447Z,7.60
2023-04-09T22:49:54.938Z,7.60
2023-04-09T22:52:42.597Z,7.60
2023-04-09T22:55:33.657Z,7.60
2023-04-09T22:58:21.404Z,7.60
2023-04-09T23:01:09.529Z,7.90
2023-04-09T23:03:57.398Z,7.60
2023-04-09T23:06:44.852Z,8.80
2023-04-09T23:09:32.565Z,7.50
2023-04-09T23:12:21.445Z,7.50
2023-04-09T23:15:09.534Z,7.80
2023-04-09T23:17:57.551Z,7.80
2023-04-09T23:20:45.742Z,7.80
2023-04-09T23:23:34.012Z,7.60
2023-04-09T23:26:21.476Z,8.00
2023-04-09T23:29:10.394Z,7.60
2023-04-09T23:31:57.668Z,7.60
2023-04-09T23:34:45.031Z,7.50
2023-04-09T23:37:32.991Z,7.40
2023-04-09T23:40:21.762Z,7.40
2023-04-09T23:43:09.896Z,7.30
2023-04-09T23:45:59.076Z,7.20
2023-04-09T23:48:46.294Z,7.10
2023-04-09T23:51:34.429Z,7.00
2023-04-09T23:54:22.127Z,6.80
2023-04-09T23:57:09.581Z,6.90
2023-04-09T23:59:57.444Z,6.90
